createdAt,value
2018-12-10T00:00:01.982Z,1013.66
2018-12-10T00:01:01.979Z,1013.73
2018-12-10T00:03:03.105Z,1013.45
2018-12-10T00:04:01.995Z,1013.47
2018-12-10T00:05:01.983Z,1013.46
2018-12-10T00:06:01.922Z,1013.44
2018-12-10T00:07:01.911Z,1013.54
2018-12-10T00:08:01.897Z,1013.46
2018-12-10T00:09:01.879Z,1013.41
2018-12-10T00:10:01.877Z,1013.44
2018-12-10T00:11:01.911Z,1013.44
2018-12-10T00:12:01.854Z,1013.43
2018-12-10T00:13:01.846Z,1013.39
2018-12-10T00:14:01.830Z,1013.45
2018-12-10T00:15:01.989Z,1013.45
2018-12-10T00:16:01.846Z,1013.44
2018-12-10T00:17:01.805Z,1013.45
2018-12-10T00:18:01.783Z,1013.44
2018-12-10T00:19:01.777Z,1013.48
2018-12-10T00:20:01.771Z,1013.48
2018-12-10T00:21:01.779Z,1013.51
2018-12-10T00:22:01.778Z,1013.49
2018-12-10T00:23:01.733Z,1013.53
2018-12-10T00:24:01.729Z,1013.45
2018-12-10T00:25:01.703Z,1013.57
2018-12-10T00:26:01.739Z,1013.51
2018-12-10T00:28:02.839Z,1013.55
2018-12-10T00:29:01.668Z,1013.60
2018-12-10T00:30:01.664Z,1013.54
2018-12-10T00:31:01.672Z,1013.58
2018-12-10T00:32:01.646Z,1013.55
2018-12-10T00:33:01.619Z,1013.58
2018-12-10T00:34:01.608Z,1013.57
2018-12-10T00:35:01.596Z,1013.65
2018-12-10T00:37:02.734Z,1013.69
2018-12-10T00:38:01.566Z,1013.67
2018-12-10T00:39:01.567Z,1013.73
2018-12-10T00:40:01.543Z,1013.75
2018-12-10T00:41:01.580Z,1013.77
2018-12-10T00:42:01.541Z,1013.71
2018-12-10T00:43:01.512Z,1013.71
2018-12-10T00:44:01.500Z,1013.76
2018-12-10T00:45:01.486Z,1013.80
2018-12-10T00:46:01.513Z,1013.77
2018-12-10T00:47:01.496Z,1013.83
2018-12-10T00:48:01.480Z,1013.91
2018-12-10T00:49:01.472Z,1013.87
2018-12-10T00:50:01.452Z,1013.89
2018-12-10T00:51:01.423Z,1013.86
2018-12-10T00:52:01.414Z,1013.87
2018-12-10T00:53:01.414Z,1013.89
2018-12-10T00:54:01.427Z,1013.89
2018-12-10T00:55:01.380Z,1013.92
2018-12-10T00:56:01.369Z,1013.93
2018-12-10T00:58:02.531Z,1013.96
2018-12-10T00:59:01.374Z,1013.94
2018-12-10T01:00:01.345Z,1013.99
2018-12-10T01:01:01.320Z,1013.97
2018-12-10T01:02:01.332Z,1014.04
2018-12-10T01:03:01.296Z,1014.00
2018-12-10T01:04:01.308Z,1014.00
2018-12-10T01:05:01.278Z,1013.99
2018-12-10T01:06:01.261Z,1013.98
2018-12-10T01:07:01.257Z,1014.00
2018-12-10T01:08:01.234Z,1014.02
2018-12-10T01:09:01.254Z,1014.01
2018-12-10T01:10:01.248Z,1013.99
2018-12-10T01:11:01.224Z,1014.04
2018-12-10T01:12:01.209Z,1014.05
2018-12-10T01:13:01.300Z,1014.06
2018-12-10T01:14:01.174Z,1014.08
2018-12-10T01:15:01.157Z,1014.08
2018-12-10T01:16:01.165Z,1014.11
2018-12-10T01:17:01.139Z,1014.17
2018-12-10T01:18:01.171Z,1014.21
2018-12-10T01:19:01.146Z,1014.24
2018-12-10T01:20:01.115Z,1014.20
2018-12-10T01:21:01.101Z,1014.29
2018-12-10T01:22:01.107Z,1014.23
2018-12-10T01:23:01.093Z,1014.28
2018-12-10T01:24:01.092Z,1014.31
2018-12-10T01:25:01.049Z,1014.27
2018-12-10T01:27:02.173Z,1014.29
2018-12-10T01:29:02.180Z,1014.29
2018-12-10T01:30:01.027Z,1014.29
2018-12-10T01:32:02.107Z,1014.37
2018-12-10T01:33:00.990Z,1014.33
2018-12-10T01:34:00.951Z,1014.35
2018-12-10T01:35:00.984Z,1014.37
2018-12-10T01:36:00.931Z,1014.41
2018-12-10T01:37:00.919Z,1014.44
2018-12-10T01:38:00.914Z,1014.49
2018-12-10T01:39:00.908Z,1014.53
2018-12-10T01:40:00.886Z,1014.48
2018-12-10T01:41:00.909Z,1014.51
2018-12-10T01:42:00.867Z,1014.55
2018-12-10T01:43:00.854Z,1014.57
2018-12-10T01:45:02.019Z,1014.62
2018-12-10T01:46:00.863Z,1014.62
2018-12-10T01:47:00.817Z,1014.59
2018-12-10T01:48:00.832Z,1014.64
2018-12-10T01:49:00.789Z,1014.68
2018-12-10T01:50:00.782Z,1014.71
2018-12-10T01:51:00.781Z,1014.76
2018-12-10T01:52:00.788Z,1014.74
2018-12-10T01:53:00.745Z,1014.80
2018-12-10T01:54:00.736Z,1014.81
2018-12-10T01:55:00.727Z,1014.86
2018-12-10T01:56:00.755Z,1014.86
2018-12-10T01:57:00.700Z,1014.86
2018-12-10T01:58:00.696Z,1014.88
2018-12-10T01:59:00.679Z,1014.88
2018-12-10T02:00:00.682Z,1014.85
2018-12-10T02:01:00.698Z,1014.91
2018-12-10T02:02:00.658Z,1014.93
2018-12-10T02:03:00.665Z,1014.92
2018-12-10T02:04:00.631Z,1014.94
2018-12-10T02:05:00.616Z,1014.98
2018-12-10T02:06:00.636Z,1014.97
2018-12-10T02:07:00.598Z,1015.02
2018-12-10T02:08:00.591Z,1015.03
2018-12-10T02:09:00.606Z,1015.01
2018-12-10T02:10:00.559Z,1015.07
2018-12-10T02:11:00.586Z,1015.05
2018-12-10T02:12:00.543Z,1015.03
2018-12-10T02:13:00.554Z,1015.06
2018-12-10T02:14:00.519Z,1015.07
2018-12-10T02:15:00.509Z,1015.06
2018-12-10T02:16:00.521Z,1015.03
2018-12-10T02:17:00.542Z,1015.05
2018-12-10T02:18:00.482Z,1015.04
2018-12-10T02:19:00.468Z,1015.03
2018-12-10T02:20:00.454Z,1014.99
2018-12-10T02:21:00.482Z,1015.03
2018-12-10T02:22:00.451Z,1014.96
2018-12-10T02:23:00.422Z,1015.00
2018-12-10T02:24:00.410Z,1014.97
2018-12-10T02:25:00.438Z,1015.02
2018-12-10T02:26:00.390Z,1015.02
2018-12-10T02:27:00.397Z,1014.99
2018-12-10T02:28:00.367Z,1015.02
2018-12-10T02:29:00.348Z,1015.00
2018-12-10T02:30:00.365Z,1015.02
2018-12-10T02:31:00.331Z,1015.02
2018-12-10T02:32:00.357Z,1015.06
2018-12-10T02:33:00.312Z,1015.16
2018-12-10T02:34:00.305Z,1015.16
2018-12-10T02:35:00.298Z,1015.20
2018-12-10T02:36:00.287Z,1015.22
2018-12-10T02:37:00.295Z,1015.17
2018-12-10T02:38:00.257Z,1015.12
2018-12-10T02:39:00.240Z,1015.24
2018-12-10T02:40:00.243Z,1015.23
2018-12-10T02:41:00.222Z,1015.20
2018-12-10T02:42:00.401Z,1015.20
2018-12-10T02:43:00.203Z,1015.25
2018-12-10T02:44:00.188Z,1015.23
2018-12-10T02:45:00.178Z,1015.20
2018-12-10T02:46:00.190Z,1015.22
2018-12-10T02:47:00.197Z,1015.25
2018-12-10T02:48:00.158Z,1015.21
2018-12-10T02:49:00.137Z,1015.32
2018-12-10T02:50:00.126Z,1015.24
2018-12-10T02:51:00.133Z,1015.25
2018-12-10T02:52:01.838Z,1015.17
2018-12-10T02:53:00.095Z,1015.20
2018-12-10T02:54:00.082Z,1015.19
2018-12-10T02:55:00.074Z,1015.16
2018-12-10T02:56:00.134Z,1015.17
2018-12-10T02:57:00.046Z,1015.19
2018-12-10T02:58:00.079Z,1015.22
2018-12-10T02:59:00.034Z,1015.23
2018-12-10T03:00:00.018Z,1015.18
2018-12-10T03:01:00.002Z,1015.17
2018-12-10T03:02:00.004Z,1015.17
2018-12-10T03:03:00.016Z,1015.25
2018-12-10T03:03:59.970Z,1015.27
2018-12-10T03:05:00.002Z,1015.23
2018-12-10T03:05:59.966Z,1015.27
2018-12-10T03:06:59.938Z,1015.30
2018-12-10T03:07:59.965Z,1015.28
2018-12-10T03:08:59.928Z,1015.31
2018-12-10T03:09:59.906Z,1015.39
2018-12-10T03:10:59.902Z,1015.38
2018-12-10T03:11:59.881Z,1015.40
2018-12-10T03:12:59.876Z,1015.39
2018-12-10T03:13:59.899Z,1015.36
2018-12-10T03:14:59.859Z,1015.40
2018-12-10T03:15:59.857Z,1015.41
2018-12-10T03:16:59.846Z,1015.38
2018-12-10T03:17:59.832Z,1015.45
2018-12-10T03:18:59.835Z,1015.44
2018-12-10T03:19:59.796Z,1015.47
2018-12-10T03:20:59.791Z,1015.54
2018-12-10T03:21:59.778Z,1015.48
2018-12-10T03:22:59.764Z,1015.51
2018-12-10T03:23:59.812Z,1015.51
2018-12-10T03:24:59.746Z,1015.52
2018-12-10T03:25:59.733Z,1015.52
2018-12-10T03:26:59.736Z,1015.53
2018-12-10T03:27:59.723Z,1015.54
2018-12-10T03:30:01.530Z,1015.58
2018-12-10T03:30:59.681Z,1015.64
2018-12-10T03:31:59.686Z,1015.65
2018-12-10T03:32:59.673Z,1015.64
2018-12-10T03:33:59.671Z,1015.70
2018-12-10T03:34:59.674Z,1015.75
2018-12-10T03:35:59.641Z,1015.76
2018-12-10T03:36:59.612Z,1015.71
2018-12-10T03:37:59.606Z,1015.70
2018-12-10T03:38:59.599Z,1015.71
2018-12-10T03:39:59.609Z,1015.65
2018-12-10T03:40:59.571Z,1015.69
2018-12-10T03:41:59.562Z,1015.56
2018-12-10T03:42:59.550Z,1015.61
2018-12-10T03:43:59.546Z,1015.54
2018-12-10T03:44:59.575Z,1015.60
2018-12-10T03:45:59.518Z,1015.62
2018-12-10T03:46:59.507Z,1015.64
2018-12-10T03:47:59.497Z,1015.67
2018-12-10T03:48:59.487Z,1015.69
2018-12-10T03:49:59.502Z,1015.64
2018-12-10T03:50:59.486Z,1015.65
2018-12-10T03:51:59.460Z,1015.63
2018-12-10T03:52:59.435Z,1015.64
2018-12-10T03:53:59.424Z,1015.70
2018-12-10T03:54:59.435Z,1015.72
2018-12-10T03:55:59.431Z,1015.69
2018-12-10T03:56:59.410Z,1015.72
2018-12-10T03:57:59.388Z,1015.70
2018-12-10T03:58:59.373Z,1015.78
2018-12-10T03:59:59.367Z,1015.76
2018-12-10T04:00:59.406Z,1015.75
2018-12-10T04:01:59.386Z,1015.78
2018-12-10T04:02:59.327Z,1015.78
2018-12-10T04:03:59.319Z,1015.78
2018-12-10T04:07:00.446Z,1015.85
2018-12-10T04:07:59.295Z,1015.88
2018-12-10T04:08:59.262Z,1015.91
2018-12-10T04:09:59.251Z,1015.91
2018-12-10T04:10:59.248Z,1015.96
2018-12-10T04:11:59.271Z,1016.01
2018-12-10T04:12:59.222Z,1016.07
2018-12-10T04:13:59.213Z,1016.08
2018-12-10T04:14:59.204Z,1016.13
2018-12-10T04:15:59.191Z,1016.05
2018-12-10T04:16:59.220Z,1016.02
2018-12-10T04:17:59.181Z,1016.01
2018-12-10T04:18:59.166Z,1016.04
2018-12-10T04:21:00.268Z,1015.98
2018-12-10T04:21:59.148Z,1015.99
2018-12-10T04:22:59.118Z,1015.89
2018-12-10T04:23:59.120Z,1015.93
2018-12-10T04:24:59.099Z,1015.93
2018-12-10T04:25:59.076Z,1015.91
2018-12-10T04:26:59.118Z,1015.96
2018-12-10T04:27:59.088Z,1015.95
2018-12-10T04:28:59.050Z,1015.95
2018-12-10T04:29:59.038Z,1015.94
2018-12-10T04:30:59.029Z,1015.99
2018-12-10T04:31:59.038Z,1015.96
2018-12-10T04:32:59.160Z,1015.99
2018-12-10T04:33:58.993Z,1016.03
2018-12-10T04:34:58.993Z,1016.09
2018-12-10T04:35:58.972Z,1016.05
2018-12-10T04:36:58.962Z,1016.11
2018-12-10T04:37:58.976Z,1016.09
2018-12-10T04:38:58.932Z,1016.10
2018-12-10T04:39:58.926Z,1016.12
2018-12-10T04:40:58.921Z,1016.17
2018-12-10T04:41:58.908Z,1016.12
2018-12-10T04:42:58.920Z,1016.16
2018-12-10T04:43:58.889Z,1016.12
2018-12-10T04:44:58.868Z,1016.16
2018-12-10T04:45:58.868Z,1016.15
2018-12-10T04:46:58.874Z,1016.14
2018-12-10T04:47:58.867Z,1016.14
2018-12-10T04:48:58.826Z,1016.20
2018-12-10T04:49:58.823Z,1016.18
2018-12-10T04:50:58.807Z,1016.14
2018-12-10T04:51:58.791Z,1016.23
2018-12-10T04:52:58.820Z,1016.29
2018-12-10T04:53:58.777Z,1016.27
2018-12-10T04:54:58.786Z,1016.33
2018-12-10T04:55:58.755Z,1016.31
2018-12-10T04:56:58.864Z,1016.29
2018-12-10T04:57:58.916Z,1016.32
2018-12-10T04:58:58.741Z,1016.36
2018-12-10T04:59:58.730Z,1016.35
2018-12-10T05:00:58.695Z,1016.33
2018-12-10T05:01:58.690Z,1016.34
2018-12-10T05:02:58.681Z,1016.38
2018-12-10T05:03:58.668Z,1016.39
2018-12-10T05:04:58.683Z,1016.35
2018-12-10T05:05:58.654Z,1016.38
2018-12-10T05:06:58.645Z,1016.36
2018-12-10T05:07:58.738Z,1016.39
2018-12-10T05:09:59.742Z,1016.35
2018-12-10T05:10:58.593Z,1016.41
2018-12-10T05:11:58.586Z,1016.44
2018-12-10T05:12:58.565Z,1016.42
2018-12-10T05:13:58.575Z,1016.48
2018-12-10T05:14:58.568Z,1016.52
2018-12-10T05:15:58.533Z,1016.54
2018-12-10T05:16:58.531Z,1016.56
2018-12-10T05:17:58.511Z,1016.53
2018-12-10T05:18:58.502Z,1016.55
2018-12-10T05:20:59.627Z,1016.50
2018-12-10T05:21:58.467Z,1016.53
2018-12-10T05:22:58.464Z,1016.54
2018-12-10T05:23:58.495Z,1016.53
2018-12-10T05:24:58.431Z,1016.54
2018-12-10T05:25:58.435Z,1016.58
2018-12-10T05:26:58.420Z,1016.61
2018-12-10T05:27:58.403Z,1016.62
2018-12-10T05:28:58.423Z,1016.59
2018-12-10T05:29:58.381Z,1016.64
2018-12-10T05:31:59.496Z,1016.67
2018-12-10T05:32:58.345Z,1016.68
2018-12-10T05:33:58.377Z,1016.74
2018-12-10T05:34:58.325Z,1016.71
2018-12-10T05:35:58.364Z,1016.72
2018-12-10T05:36:58.301Z,1016.71
2018-12-10T05:37:58.304Z,1016.69
2018-12-10T05:39:59.450Z,1016.72
2018-12-10T05:40:58.291Z,1016.73
2018-12-10T05:41:58.251Z,1016.70
2018-12-10T05:42:58.256Z,1016.73
2018-12-10T05:43:58.229Z,1016.77
2018-12-10T05:44:58.316Z,1016.73
2018-12-10T05:46:59.359Z,1016.76
2018-12-10T05:47:58.188Z,1016.71
2018-12-10T05:49:59.318Z,1016.70
2018-12-10T05:50:58.181Z,1016.65
2018-12-10T05:51:58.143Z,1016.69
2018-12-10T05:52:58.137Z,1016.62
2018-12-10T05:53:58.117Z,1016.63
2018-12-10T05:54:58.113Z,1016.66
2018-12-10T05:56:59.221Z,1016.68
2018-12-10T05:57:58.074Z,1016.80
2018-12-10T05:58:58.071Z,1016.86
2018-12-10T05:59:58.054Z,1016.91
2018-12-10T06:00:58.107Z,1016.90
2018-12-10T06:01:58.033Z,1016.93
2018-12-10T06:02:58.027Z,1016.94
2018-12-10T06:03:58.013Z,1016.99
2018-12-10T06:04:57.997Z,1016.99
2018-12-10T06:05:58.016Z,1017.04
2018-12-10T06:07:59.138Z,1017.00
2018-12-10T06:08:57.949Z,1016.98
2018-12-10T06:09:57.951Z,1016.99
2018-12-10T06:10:57.969Z,1017.01
2018-12-10T06:11:57.960Z,1017.02
2018-12-10T06:12:57.908Z,1017.06
2018-12-10T06:13:57.919Z,1017.08
2018-12-10T06:14:57.887Z,1017.05
2018-12-10T06:15:57.921Z,1017.02
2018-12-10T06:16:57.881Z,1017.08
2018-12-10T06:17:57.851Z,1017.04
2018-12-10T06:18:57.840Z,1017.00
2018-12-10T06:19:57.856Z,1017.03
2018-12-10T06:20:57.826Z,1016.99
2018-12-10T06:21:57.859Z,1017.03
2018-12-10T06:22:57.806Z,1017.01
2018-12-10T06:23:57.795Z,1016.98
2018-12-10T06:24:57.782Z,1017.03
2018-12-10T06:25:57.767Z,1017.11
2018-12-10T06:26:57.756Z,1017.15
2018-12-10T06:27:57.773Z,1017.08
2018-12-10T06:28:57.750Z,1017.10
2018-12-10T06:29:57.751Z,1017.15
2018-12-10T06:30:57.713Z,1017.19
2018-12-10T06:31:57.698Z,1017.14
2018-12-10T06:32:57.729Z,1017.15
2018-12-10T06:33:57.678Z,1017.18
2018-12-10T06:34:57.665Z,1017.18
2018-12-10T06:35:57.662Z,1017.17
2018-12-10T06:36:57.650Z,1017.20
2018-12-10T06:37:57.671Z,1017.26
2018-12-10T06:38:57.637Z,1017.23
2018-12-10T06:39:57.618Z,1017.17
2018-12-10T06:40:57.610Z,1017.20
2018-12-10T06:41:57.587Z,1017.15
2018-12-10T06:42:57.612Z,1017.21
2018-12-10T06:43:57.568Z,1017.23
2018-12-10T06:44:57.560Z,1017.22
2018-12-10T06:45:57.549Z,1017.26
2018-12-10T06:46:57.534Z,1017.31
2018-12-10T06:47:58.462Z,1017.35
2018-12-10T06:48:57.511Z,1017.37
2018-12-10T06:49:57.503Z,1017.33
2018-12-10T06:50:57.494Z,1017.32
2018-12-10T06:51:57.478Z,1017.29
2018-12-10T06:52:57.478Z,1017.32
2018-12-10T06:53:57.491Z,1017.27
2018-12-10T06:54:57.445Z,1017.32
2018-12-10T06:55:57.433Z,1017.30
2018-12-10T06:56:57.425Z,1017.31
2018-12-10T06:57:57.452Z,1017.34
2018-12-10T06:58:57.521Z,1017.37
2018-12-10T06:59:57.392Z,1017.36
2018-12-10T07:00:57.381Z,1017.35
2018-12-10T07:01:57.372Z,1017.37
2018-12-10T07:02:57.365Z,1017.39
2018-12-10T07:03:57.371Z,1017.34
2018-12-10T07:04:57.342Z,1017.36
2018-12-10T07:05:57.331Z,1017.35
2018-12-10T07:06:57.318Z,1017.38
2018-12-10T07:07:57.973Z,1017.35
2018-12-10T07:08:57.326Z,1017.41
2018-12-10T07:09:57.280Z,1017.40
2018-12-10T07:10:57.272Z,1017.38
2018-12-10T07:11:57.269Z,1017.40
2018-12-10T07:12:57.255Z,1017.36
2018-12-10T07:13:57.341Z,1017.42
2018-12-10T07:14:57.230Z,1017.37
2018-12-10T07:16:58.384Z,1017.43
2018-12-10T07:17:57.191Z,1017.43
2018-12-10T07:19:58.318Z,1017.45
2018-12-10T07:20:57.168Z,1017.42
2018-12-10T07:21:57.152Z,1017.38
2018-12-10T07:22:57.138Z,1017.43
2018-12-10T07:23:57.136Z,1017.43
2018-12-10T07:24:57.139Z,1017.47
2018-12-10T07:26:58.274Z,1017.45
2018-12-10T07:27:57.083Z,1017.41
2018-12-10T07:28:57.078Z,1017.44
2018-12-10T07:29:57.093Z,1017.46
2018-12-10T07:30:57.058Z,1017.49
2018-12-10T07:31:57.051Z,1017.51
2018-12-10T07:32:57.031Z,1017.54
2018-12-10T07:34:58.186Z,1017.51
2018-12-10T07:35:57.001Z,1017.55
2018-12-10T07:36:56.985Z,1017.54
2018-12-10T07:37:56.991Z,1017.48
2018-12-10T07:38:56.968Z,1017.55
2018-12-10T07:39:56.985Z,1017.57
2018-12-10T07:40:56.945Z,1017.63
2018-12-10T07:41:56.929Z,1017.59
2018-12-10T07:42:56.920Z,1017.64
2018-12-10T07:43:56.913Z,1017.66
2018-12-10T07:45:58.059Z,1017.72
2018-12-10T07:46:56.915Z,1017.68
2018-12-10T07:47:56.868Z,1017.72
2018-12-10T07:48:56.869Z,1017.78
2018-12-10T07:49:56.874Z,1017.83
2018-12-10T07:50:56.841Z,1017.82
2018-12-10T07:51:56.825Z,1017.81
2018-12-10T07:52:56.813Z,1017.81
2018-12-10T07:53:56.810Z,1017.89
2018-12-10T07:54:56.789Z,1017.86
2018-12-10T07:55:56.810Z,1017.89
2018-12-10T07:56:56.795Z,1017.86
2018-12-10T07:57:56.786Z,1017.96
2018-12-10T07:58:56.753Z,1017.92
2018-12-10T07:59:56.737Z,1017.94
2018-12-10T08:00:56.760Z,1017.98
2018-12-10T08:01:56.741Z,1017.88
2018-12-10T08:02:56.702Z,1017.91
2018-12-10T08:03:56.697Z,1017.89
2018-12-10T08:04:56.684Z,1017.92
2018-12-10T08:05:56.698Z,1017.81
2018-12-10T08:06:56.696Z,1017.85
2018-12-10T08:07:56.659Z,1017.88
2018-12-10T08:09:57.777Z,1017.87
2018-12-10T08:10:56.620Z,1017.87
2018-12-10T08:11:56.613Z,1017.97
2018-12-10T08:12:56.647Z,1018.01
2018-12-10T08:13:56.604Z,1017.99
2018-12-10T08:14:56.576Z,1017.99
2018-12-10T08:15:56.586Z,1018.02
2018-12-10T08:16:56.553Z,1018.02
2018-12-10T08:17:56.538Z,1018.04
2018-12-10T08:18:56.548Z,1018.00
2018-12-10T08:21:02.303Z,1018.12
2018-12-10T08:21:56.500Z,1018.12
2018-12-10T08:22:56.487Z,1018.17
2018-12-10T08:23:57.449Z,1018.15
2018-12-10T08:24:56.480Z,1018.13
2018-12-10T08:25:56.496Z,1018.19
2018-12-10T08:26:56.449Z,1018.21
2018-12-10T08:27:56.430Z,1018.28
2018-12-10T08:29:03.872Z,1018.25
2018-12-10T08:29:57.445Z,1018.28
2018-12-10T08:30:56.412Z,1018.27
2018-12-10T08:31:56.532Z,1018.29
2018-12-10T08:32:56.376Z,1018.29
2018-12-10T08:33:56.373Z,1018.28
2018-12-10T08:34:56.368Z,1018.29
2018-12-10T08:35:56.353Z,1018.36
2018-12-10T08:36:56.372Z,1018.40
2018-12-10T08:37:56.317Z,1018.39
2018-12-10T08:38:56.319Z,1018.39
2018-12-10T08:39:56.296Z,1018.37
2018-12-10T08:40:56.299Z,1018.43
2018-12-10T08:41:56.338Z,1018.42
2018-12-10T08:42:56.264Z,1018.38
2018-12-10T08:43:56.259Z,1018.40
2018-12-10T08:44:56.243Z,1018.35
2018-12-10T08:45:56.241Z,1018.36
2018-12-10T08:46:56.270Z,1018.36
2018-12-10T08:47:56.256Z,1018.36
2018-12-10T08:48:56.239Z,1018.39
2018-12-10T08:49:56.204Z,1018.43
2018-12-10T08:50:56.225Z,1018.39
2018-12-10T08:51:56.209Z,1018.42
2018-12-10T08:52:56.194Z,1018.35
2018-12-10T08:53:56.163Z,1018.40
2018-12-10T08:54:56.139Z,1018.41
2018-12-10T08:55:56.115Z,1018.41
2018-12-10T08:56:56.120Z,1018.46
2018-12-10T08:57:56.131Z,1018.48
2018-12-10T08:58:56.116Z,1018.48
2018-12-10T08:59:56.103Z,1018.49
2018-12-10T09:00:56.192Z,1018.52
2018-12-10T09:01:56.051Z,1018.52
2018-12-10T09:02:56.069Z,1018.50
2018-12-10T09:04:57.327Z,1018.54
2018-12-10T09:05:56.015Z,1018.57
2018-12-10T09:06:56.003Z,1018.59
2018-12-10T09:07:56.014Z,1018.61
2018-12-10T09:08:55.979Z,1018.63
2018-12-10T09:09:55.992Z,1018.63
2018-12-10T09:10:55.951Z,1018.61
2018-12-10T09:11:55.950Z,1018.62
2018-12-10T09:12:55.955Z,1018.55
2018-12-10T09:13:55.951Z,1018.63
2018-12-10T09:14:55.907Z,1018.57
2018-12-10T09:15:55.897Z,1018.55
2018-12-10T09:16:55.883Z,1018.50
2018-12-10T09:17:55.880Z,1018.54
2018-12-10T09:18:55.897Z,1018.53
2018-12-10T09:19:55.856Z,1018.55
2018-12-10T09:20:55.853Z,1018.55
2018-12-10T09:21:55.855Z,1018.55
2018-12-10T09:22:55.818Z,1018.52
2018-12-10T09:23:55.834Z,1018.52
2018-12-10T09:24:55.806Z,1018.48
2018-12-10T09:25:55.789Z,1018.56
2018-12-10T09:26:55.780Z,1018.58
2018-12-10T09:27:55.774Z,1018.57
2018-12-10T09:28:55.792Z,1018.59
2018-12-10T09:29:55.741Z,1018.56
2018-12-10T09:30:55.735Z,1018.60
2018-12-10T09:31:55.721Z,1018.62
2018-12-10T09:32:55.713Z,1018.63
2018-12-10T09:33:55.740Z,1018.68
2018-12-10T09:34:55.717Z,1018.66
2018-12-10T09:35:55.680Z,1018.68
2018-12-10T09:36:55.670Z,1018.67
2018-12-10T09:37:55.657Z,1018.69
2018-12-10T09:38:55.655Z,1018.67
2018-12-10T09:39:55.672Z,1018.68
2018-12-10T09:40:55.622Z,1018.61
2018-12-10T09:41:55.608Z,1018.68
2018-12-10T09:42:55.624Z,1018.74
2018-12-10T09:43:55.590Z,1018.70
2018-12-10T09:44:55.596Z,1018.69
2018-12-10T09:45:55.568Z,1018.69
2018-12-10T09:46:59.039Z,1018.67
2018-12-10T09:47:55.544Z,1018.66
2018-12-10T09:48:55.539Z,1018.67
2018-12-10T09:49:55.556Z,1018.70
2018-12-10T09:50:55.543Z,1018.72
2018-12-10T09:51:55.501Z,1018.72
2018-12-10T09:52:55.492Z,1018.65
2018-12-10T09:53:55.477Z,1018.61
2018-12-10T09:54:55.478Z,1018.64
2018-12-10T09:55:55.481Z,1018.65
2018-12-10T09:56:55.451Z,1018.72
2018-12-10T09:57:55.441Z,1018.67
2018-12-10T09:58:55.421Z,1018.69
2018-12-10T09:59:55.414Z,1018.72
2018-12-10T10:00:55.463Z,1018.70
2018-12-10T10:01:55.405Z,1018.79
2018-12-10T10:02:55.384Z,1018.81
2018-12-10T10:03:55.374Z,1018.76
2018-12-10T10:04:55.355Z,1018.78
2018-12-10T10:05:55.374Z,1018.73
2018-12-10T10:06:55.354Z,1018.75
2018-12-10T10:07:55.320Z,1018.75
2018-12-10T10:08:55.324Z,1018.80
2018-12-10T10:09:55.306Z,1018.73
2018-12-10T10:10:55.396Z,1018.81
2018-12-10T10:11:55.282Z,1018.81
2018-12-10T10:12:55.292Z,1018.79
2018-12-10T10:13:55.259Z,1018.81
2018-12-10T10:14:55.249Z,1018.70
2018-12-10T10:15:55.292Z,1018.71
2018-12-10T10:16:55.235Z,1018.76
2018-12-10T10:17:55.215Z,1018.75
2018-12-10T10:18:55.229Z,1018.74
2018-12-10T10:19:55.225Z,1018.72
2018-12-10T10:20:55.181Z,1018.80
2018-12-10T10:21:55.199Z,1018.70
2018-12-10T10:22:55.166Z,1018.75
2018-12-10T10:23:55.167Z,1018.75
2018-12-10T10:24:55.140Z,1018.78
2018-12-10T10:25:55.141Z,1018.74
2018-12-10T10:26:55.160Z,1018.80
2018-12-10T10:27:55.135Z,1018.79
2018-12-10T10:28:55.090Z,1018.85
2018-12-10T10:29:55.091Z,1018.84
2018-12-10T10:30:55.088Z,1018.88
2018-12-10T10:31:55.065Z,1018.82
2018-12-10T10:33:56.197Z,1018.82
2018-12-10T10:34:55.033Z,1018.83
2018-12-10T10:35:55.036Z,1018.87
2018-12-10T10:36:55.015Z,1018.88
2018-12-10T10:37:55.032Z,1018.90
2018-12-10T10:38:54.986Z,1018.86
2018-12-10T10:39:55.907Z,1018.86
2018-12-10T10:40:54.959Z,1018.88
2018-12-10T10:41:54.965Z,1018.89
2018-12-10T10:43:56.096Z,1018.85
2018-12-10T10:45:56.094Z,1018.83
2018-12-10T10:46:54.904Z,1018.85
2018-12-10T10:47:54.930Z,1018.76
2018-12-10T10:48:54.875Z,1018.74
2018-12-10T10:49:54.863Z,1018.72
2018-12-10T10:50:54.856Z,1018.77
2018-12-10T10:51:54.852Z,1018.72
2018-12-10T10:52:54.854Z,1018.74
2018-12-10T10:53:54.826Z,1018.77
2018-12-10T10:54:54.856Z,1018.78
2018-12-10T10:55:54.803Z,1018.74
2018-12-10T10:56:54.822Z,1018.73
2018-12-10T10:57:54.826Z,1018.82
2018-12-10T10:58:54.792Z,1018.80
2018-12-10T10:59:54.760Z,1018.82
2018-12-10T11:01:55.885Z,1018.78
2018-12-10T11:02:54.744Z,1018.80
2018-12-10T11:03:54.774Z,1018.80
2018-12-10T11:04:54.701Z,1018.79
2018-12-10T11:05:54.688Z,1018.76
2018-12-10T11:06:54.675Z,1018.76
2018-12-10T11:07:54.664Z,1018.75
2018-12-10T11:08:54.693Z,1018.80
2018-12-10T11:09:54.643Z,1018.74
2018-12-10T11:10:54.636Z,1018.69
2018-12-10T11:11:54.634Z,1018.67
2018-12-10T11:12:54.616Z,1018.70
2018-12-10T11:13:54.606Z,1018.73
2018-12-10T11:14:54.636Z,1018.71
2018-12-10T11:15:54.583Z,1018.68
2018-12-10T11:16:54.564Z,1018.74
2018-12-10T11:17:54.603Z,1018.72
2018-12-10T11:18:54.576Z,1018.75
2018-12-10T11:19:54.547Z,1018.72
2018-12-10T11:20:54.603Z,1018.68
2018-12-10T11:21:54.518Z,1018.63
2018-12-10T11:22:54.495Z,1018.62
2018-12-10T11:23:54.487Z,1018.69
2018-12-10T11:24:54.472Z,1018.65
2018-12-10T11:25:54.574Z,1018.67
2018-12-10T11:26:54.452Z,1018.70
2018-12-10T11:27:54.465Z,1018.74
2018-12-10T11:28:54.442Z,1018.67
2018-12-10T11:29:54.467Z,1018.74
2018-12-10T11:30:54.408Z,1018.70
2018-12-10T11:31:54.407Z,1018.64
2018-12-10T11:32:54.395Z,1018.69
2018-12-10T11:33:54.388Z,1018.71
2018-12-10T11:34:54.395Z,1018.60
2018-12-10T11:35:54.359Z,1018.65
2018-12-10T11:37:55.496Z,1018.65
2018-12-10T11:38:58.111Z,1018.63
2018-12-10T11:39:54.362Z,1018.56
2018-12-10T11:40:54.351Z,1018.58
2018-12-10T11:41:54.282Z,1018.56
2018-12-10T11:42:54.296Z,1018.63
2018-12-10T11:43:54.264Z,1018.62
2018-12-10T11:45:55.437Z,1018.61
2018-12-10T11:46:54.297Z,1018.60
2018-12-10T11:48:55.439Z,1018.68
2018-12-10T11:49:54.209Z,1018.63
2018-12-10T11:50:54.226Z,1018.52
2018-12-10T11:51:54.181Z,1018.54
2018-12-10T11:52:54.168Z,1018.52
2018-12-10T11:53:54.180Z,1018.50
2018-12-10T11:54:54.149Z,1018.47
2018-12-10T11:55:54.176Z,1018.49
2018-12-10T11:56:54.190Z,1018.49
2018-12-10T11:57:54.122Z,1018.51
2018-12-10T11:58:54.100Z,1018.58
2018-12-10T11:59:54.103Z,1018.64
2018-12-10T12:00:54.116Z,1018.62
2018-12-10T12:01:54.069Z,1018.64
2018-12-10T12:02:54.136Z,1018.65
2018-12-10T12:03:54.059Z,1018.66
2018-12-10T12:04:54.040Z,1018.66
2018-12-10T12:05:54.030Z,1018.65
2018-12-10T12:07:55.230Z,1018.56
2018-12-10T12:08:53.989Z,1018.59
2018-12-10T12:09:53.987Z,1018.54
2018-12-10T12:10:53.969Z,1018.55
2018-12-10T12:11:53.963Z,1018.51
2018-12-10T12:12:53.969Z,1018.51
2018-12-10T12:13:53.975Z,1018.46
2018-12-10T12:14:53.929Z,1018.48
2018-12-10T12:15:53.923Z,1018.51
2018-12-10T12:16:53.960Z,1018.47
2018-12-10T12:17:53.893Z,1018.53
2018-12-10T12:18:53.882Z,1018.45
2018-12-10T12:19:53.890Z,1018.46
2018-12-10T12:20:53.868Z,1018.35
2018-12-10T12:21:53.877Z,1018.40
2018-12-10T12:22:53.844Z,1018.35
2018-12-10T12:23:53.835Z,1018.34
2018-12-10T12:24:53.818Z,1018.36
2018-12-10T12:26:54.982Z,1018.34
2018-12-10T12:27:53.789Z,1018.34
2018-12-10T12:28:53.802Z,1018.41
2018-12-10T12:29:53.780Z,1018.39
2018-12-10T12:30:53.761Z,1018.37
2018-12-10T12:31:53.744Z,1018.42
2018-12-10T12:32:53.767Z,1018.38
2018-12-10T12:33:53.714Z,1018.43
2018-12-10T12:34:53.726Z,1018.44
2018-12-10T12:35:53.706Z,1018.41
2018-12-10T12:36:53.685Z,1018.44
2018-12-10T12:37:53.700Z,1018.44
2018-12-10T12:38:53.686Z,1018.42
2018-12-10T12:39:53.656Z,1018.40
2018-12-10T12:40:53.644Z,1018.39
2018-12-10T12:41:53.622Z,1018.43